createdAt,value
2022-07-30T00:02:25.627Z,98771.00
2022-07-30T00:05:30.535Z,98777.53
2022-07-30T00:08:35.242Z,98770.19
2022-07-30T00:11:40.179Z,98775.94
2022-07-30T00:14:45.488Z,98784.22
2022-07-30T00:17:51.078Z,98780.63
2022-07-30T00:20:56.640Z,98777.63
2022-07-30T00:24:02.606Z,98785.31
2022-07-30T00:27:11.402Z,98787.81
2022-07-30T00:30:18.934Z,98788.28
2022-07-30T00:33:27.508Z,98786.50
2022-07-30T00:36:32.753Z,98787.69
2022-07-30T00:39:38.133Z,98783.66
2022-07-30T00:42:05.677Z,98781.31
2022-07-30T00:44:33.430Z,98787.41
2022-07-30T00:47:38.719Z,98787.16
2022-07-30T00:50:45.254Z,98793.84
2022-07-30T00:53:50.916Z,98792.06
2022-07-30T00:56:23.115Z,98790.94
2022-07-30T00:58:51.041Z,98803.56
2022-07-30T01:01:18.675Z,98803.03
2022-07-30T01:03:46.260Z,98799.56
2022-07-30T01:06:14.287Z,98799.31
2022-07-30T01:08:43.364Z,98809.25
2022-07-30T01:11:11.720Z,98814.31
2022-07-30T01:13:44.249Z,98814.28
2022-07-30T01:16:13.055Z,98805.53
2022-07-30T01:19:00.929Z,98810.50
2022-07-30T01:22:06.223Z,98811.97
2022-07-30T01:25:11.277Z,98822.13
2022-07-30T01:28:18.460Z,98820.59
2022-07-30T01:31:24.927Z,98821.91
2022-07-30T01:34:30.377Z,98810.50
2022-07-30T01:37:35.605Z,98817.50
2022-07-30T01:40:40.793Z,98826.03
2022-07-30T01:43:46.150Z,98817.91
2022-07-30T01:46:51.462Z,98826.56
2022-07-30T01:49:58.887Z,98833.78
2022-07-30T01:53:05.596Z,98824.38
2022-07-30T01:56:11.431Z,98833.06
2022-07-30T01:59:17.821Z,98830.91
2022-07-30T02:02:25.455Z,98837.66
2022-07-30T02:05:30.596Z,98835.59
2022-07-30T02:08:36.411Z,98830.97
2022-07-30T02:12:03.319Z,98837.06
2022-07-30T02:15:11.417Z,98837.34
2022-07-30T02:18:16.537Z,98838.63
2022-07-30T02:21:22.403Z,98839.16
2022-07-30T02:24:27.761Z,98840.31
2022-07-30T02:26:58.625Z,98829.16
2022-07-30T02:29:27.434Z,98828.47
2022-07-30T02:31:56.617Z,98831.09
2022-07-30T02:34:27.811Z,98833.53
2022-07-30T02:36:56.053Z,98838.19
2022-07-30T02:39:23.848Z,98836.56
2022-07-30T02:41:52.514Z,98838.56
2022-07-30T02:44:58.088Z,98832.81
2022-07-30T02:48:03.311Z,98844.53
2022-07-30T02:51:08.337Z,98854.72
2022-07-30T02:54:13.728Z,98857.97
2022-07-30T02:57:19.312Z,98856.25
2022-07-30T03:00:24.825Z,98858.47
2022-07-30T03:03:30.421Z,98862.81
2022-07-30T03:06:35.504Z,98856.69
2022-07-30T03:09:50.994Z,98860.69
2022-07-30T03:12:58.149Z,98863.78
2022-07-30T03:16:03.520Z,98868.00
2022-07-30T03:19:09.940Z,98872.53
2022-07-30T03:21:41.420Z,98867.28
2022-07-30T03:24:46.642Z,98875.38
2022-07-30T03:27:52.146Z,98866.81
2022-07-30T03:30:20.837Z,98882.06
2022-07-30T03:32:48.796Z,98873.66
2022-07-30T03:35:20.338Z,98873.00
2022-07-30T03:38:28.463Z,98878.47
2022-07-30T03:40:58.235Z,98877.84
2022-07-30T03:43:33.062Z,98874.38
2022-07-30T03:46:07.707Z,98879.34
2022-07-30T03:48:38.806Z,98882.31
2022-07-30T03:51:07.632Z,98891.75
2022-07-30T03:53:35.658Z,98902.53
2022-07-30T03:56:24.581Z,98894.81
2022-07-30T03:59:03.080Z,98893.38
2022-07-30T04:01:34.036Z,98897.91
2022-07-30T04:04:11.592Z,98895.63
2022-07-30T04:06:42.877Z,98906.03
2022-07-30T04:09:14.671Z,98902.75
2022-07-30T04:11:43.240Z,98911.25
2022-07-30T04:14:14.659Z,98916.13
2022-07-30T04:16:52.277Z,98913.72
2022-07-30T04:19:31.262Z,98919.28
2022-07-30T04:22:01.074Z,98916.56
2022-07-30T04:24:30.832Z,98930.81
2022-07-30T04:27:03.923Z,98927.88
2022-07-30T04:29:32.486Z,98938.13
2022-07-30T04:32:00.872Z,98938.59
2022-07-30T04:34:37.045Z,98942.13
2022-07-30T04:37:07.926Z,98940.34
2022-07-30T04:39:35.905Z,98948.28
2022-07-30T04:42:03.528Z,98947.31
2022-07-30T04:44:38.595Z,98955.63
2022-07-30T04:47:23.972Z,98949.19
2022-07-30T04:50:10.362Z,98955.91
2022-07-30T04:52:38.519Z,98961.25
2022-07-30T04:55:09.977Z,98965.75
2022-07-30T04:57:40.388Z,98961.38
2022-07-30T05:00:09.873Z,98962.28
2022-07-30T05:02:41.225Z,98969.97
2022-07-30T05:05:09.353Z,98972.22
2022-07-30T05:07:38.142Z,98969.84
2022-07-30T05:10:09.681Z,98966.47
2022-07-30T05:12:37.656Z,98969.22
2022-07-30T05:15:07.230Z,98962.00
2022-07-30T05:17:35.159Z,98968.38
2022-07-30T05:20:06.295Z,98973.72
2022-07-30T05:22:51.173Z,98971.34
2022-07-30T05:25:20.498Z,98977.19
2022-07-30T05:27:51.302Z,98973.47
2022-07-30T05:30:18.778Z,98978.47
2022-07-30T05:32:51.041Z,98969.28
2022-07-30T05:35:18.811Z,98984.69
2022-07-30T05:37:52.163Z,98978.47
2022-07-30T05:40:20.757Z,98979.44
2022-07-30T05:43:08.686Z,98985.16
2022-07-30T05:45:36.497Z,98976.97
2022-07-30T05:48:04.492Z,98976.16
2022-07-30T05:50:32.029Z,98982.09
2022-07-30T05:52:59.528Z,98976.66
2022-07-30T05:55:58.940Z,98975.97
2022-07-30T05:58:52.692Z,98983.41
2022-07-30T06:01:34.008Z,98977.72
2022-07-30T06:04:09.402Z,98975.69
2022-07-30T06:06:43.438Z,98987.56
2022-07-30T06:09:11.547Z,98985.84
2022-07-30T06:11:39.103Z,98989.38
2022-07-30T06:14:06.984Z,98993.25
2022-07-30T06:16:34.635Z,98994.47
2022-07-30T06:19:02.394Z,98991.56
2022-07-30T06:22:05.302Z,98989.75
2022-07-30T06:24:34.846Z,98992.72
2022-07-30T06:27:12.002Z,98989.88
2022-07-30T06:29:40.601Z,98992.81
2022-07-30T06:32:09.678Z,99003.16
2022-07-30T06:34:37.140Z,98996.88
2022-07-30T06:37:04.850Z,99002.44
2022-07-30T06:39:57.701Z,98999.69
2022-07-30T06:42:41.624Z,98997.31
2022-07-30T06:45:27.912Z,98996.88
2022-07-30T06:48:14.331Z,99003.31
2022-07-30T06:50:43.338Z,99001.94
2022-07-30T06:53:11.448Z,98996.47
2022-07-30T06:55:58.575Z,99000.91
2022-07-30T06:58:33.438Z,98999.66
2022-07-30T07:01:23.420Z,99000.56
2022-07-30T07:03:51.288Z,99003.16
2022-07-30T07:06:19.496Z,98999.94
2022-07-30T07:08:47.093Z,98999.09
2022-07-30T07:11:18.846Z,99007.91
2022-07-30T07:13:53.910Z,99008.53
2022-07-30T07:16:34.373Z,99003.47
2022-07-30T07:19:59.727Z,99000.84
2022-07-30T07:22:07.824Z,99001.16
2022-07-30T07:24:40.182Z,99002.88
2022-07-30T07:27:17.896Z,99005.34
2022-07-30T07:30:01.347Z,99007.44
2022-07-30T07:32:35.522Z,99004.50
2022-07-30T07:35:06.517Z,99007.78
2022-07-30T07:37:36.405Z,99010.84
2022-07-30T07:40:08.596Z,99011.56
2022-07-30T07:42:41.363Z,99002.66
2022-07-30T07:45:09.372Z,99013.53
2022-07-30T07:47:49.245Z,99013.88
2022-07-30T07:50:43.571Z,98999.13
2022-07-30T07:53:21.242Z,99009.22
2022-07-30T07:55:48.853Z,99006.84
2022-07-30T07:58:20.094Z,99001.28
2022-07-30T08:00:54.070Z,99000.59
2022-07-30T08:03:25.369Z,98995.66
2022-07-30T08:06:05.688Z,99003.81
2022-07-30T08:09:08.885Z,99003.72
2022-07-30T08:11:58.960Z,98999.22
2022-07-30T08:14:53.972Z,99000.44
2022-07-30T08:17:46.777Z,99001.91
2022-07-30T08:20:19.080Z,99012.19
2022-07-30T08:22:46.869Z,99013.63
2022-07-30T08:25:22.193Z,99004.66
2022-07-30T08:27:53.257Z,99002.25
2022-07-30T08:30:21.064Z,99002.28
2022-07-30T08:32:48.785Z,99004.75
2022-07-30T08:35:16.362Z,98999.22
2022-07-30T08:37:43.977Z,99000.81
2022-07-30T08:40:12.072Z,99008.63
2022-07-30T08:42:54.281Z,99007.91
2022-07-30T08:45:34.964Z,99005.47
2022-07-30T08:48:17.659Z,99011.00
2022-07-30T08:50:46.614Z,99006.69
2022-07-30T08:53:34.049Z,99007.03
2022-07-30T08:56:02.637Z,98997.84
2022-07-30T08:58:36.383Z,99009.75
2022-07-30T09:01:05.597Z,98999.88
2022-07-30T09:03:36.740Z,99007.09
2022-07-30T09:06:12.251Z,99014.16
2022-07-30T09:08:39.935Z,99008.41
2022-07-30T09:11:07.552Z,99014.78
2022-07-30T09:13:37.750Z,99006.34
2022-07-30T09:16:06.287Z,99012.16
2022-07-30T09:18:39.689Z,99013.41
2022-07-30T09:21:22.179Z,99009.03
2022-07-30T09:24:02.110Z,99004.44
2022-07-30T09:27:00.376Z,99008.72
2022-07-30T09:29:44.234Z,99005.50
2022-07-30T09:32:52.167Z,99009.53
2022-07-30T09:35:41.050Z,99000.28
2022-07-30T09:38:12.513Z,98992.75
2022-07-30T09:41:00.160Z,99004.59
2022-07-30T09:43:51.207Z,99005.34
2022-07-30T09:46:48.105Z,99006.66
2022-07-30T09:49:41.933Z,99004.53
2022-07-30T09:52:29.045Z,99007.34
2022-07-30T09:54:57.005Z,99006.00
2022-07-30T09:57:28.822Z,98990.38
2022-07-30T10:00:23.819Z,98990.59
2022-07-30T10:03:21.910Z,98993.06
2022-07-30T10:06:35.184Z,98995.44
2022-07-30T10:09:24.848Z,98985.22
2022-07-30T10:11:56.699Z,98990.94
2022-07-30T10:14:42.652Z,98995.63
2022-07-30T10:17:13.308Z,98993.25
2022-07-30T10:19:44.779Z,98998.44
2022-07-30T10:22:36.172Z,98990.16
2022-07-30T10:25:28.009Z,98988.91
2022-07-30T10:28:35.822Z,98988.09
2022-07-30T10:31:48.104Z,98985.13
2022-07-30T10:33:59.449Z,98980.25
2022-07-30T10:36:28.121Z,98974.41
2022-07-30T10:38:56.336Z,98984.75
2022-07-30T10:41:53.909Z,98976.22
2022-07-30T10:44:39.090Z,98973.88
2022-07-30T10:47:10.966Z,98968.94
2022-07-30T10:49:41.177Z,98973.56
2022-07-30T10:52:11.044Z,98974.28
2022-07-30T10:54:41.996Z,98971.91
2022-07-30T10:57:31.603Z,98972.50
2022-07-30T10:59:59.939Z,98978.53
2022-07-30T11:02:35.768Z,98982.50
2022-07-30T11:05:43.871Z,98969.63
2022-07-30T11:08:36.347Z,98968.72
2022-07-30T11:11:20.593Z,98959.91
2022-07-30T11:13:51.938Z,98966.84
2022-07-30T11:16:23.182Z,98972.84
2022-07-30T11:19:51.550Z,98974.41
2022-07-30T11:22:38.365Z,98969.06
2022-07-30T11:25:12.675Z,98965.09
2022-07-30T11:27:45.765Z,98969.81
2022-07-30T11:30:17.678Z,98976.44
2022-07-30T11:32:51.381Z,98969.59
2022-07-30T11:35:23.072Z,98966.94
2022-07-30T11:38:15.687Z,98960.28
2022-07-30T11:40:49.375Z,98951.88
2022-07-30T11:43:34.833Z,98957.94
2022-07-30T11:46:07.006Z,98954.66
2022-07-30T11:48:44.088Z,98947.78
2022-07-30T11:51:11.919Z,98963.28
2022-07-30T11:53:39.472Z,98957.38
2022-07-30T11:56:07.055Z,98959.03
2022-07-30T11:58:40.013Z,98961.44
2022-07-30T12:01:15.390Z,98946.84
2022-07-30T12:03:44.617Z,98946.13
2022-07-30T12:06:18.140Z,98948.16
2022-07-30T12:08:49.619Z,98949.13
2022-07-30T12:11:17.621Z,98942.94
2022-07-30T12:13:56.149Z,98938.94
2022-07-30T12:16:23.720Z,98948.47
2022-07-30T12:18:51.365Z,98935.06
2022-07-30T12:21:19.310Z,98935.47
2022-07-30T12:24:00.963Z,98936.16
2022-07-30T12:26:34.796Z,98929.03
2022-07-30T12:29:10.079Z,98927.19
2022-07-30T12:31:40.229Z,98935.84
2022-07-30T12:34:25.176Z,98940.69
2022-07-30T12:36:56.840Z,98932.03
2022-07-30T12:39:26.086Z,98935.28
2022-07-30T12:41:57.890Z,98924.19
2022-07-30T12:44:34.669Z,98929.41
2022-07-30T12:47:04.690Z,98926.06
2022-07-30T12:49:36.583Z,98924.81
2022-07-30T12:52:13.243Z,98908.00
2022-07-30T12:54:57.254Z,98911.81
2022-07-30T12:57:24.782Z,98911.00
2022-07-30T13:00:08.748Z,98910.78
2022-07-30T13:02:36.637Z,98909.81
2022-07-30T13:05:11.577Z,98912.34
2022-07-30T13:07:56.742Z,98914.94
2022-07-30T13:10:30.790Z,98886.78
2022-07-30T13:12:59.798Z,98887.19
2022-07-30T13:15:27.476Z,98887.44
2022-07-30T13:17:55.089Z,98889.25
2022-07-30T13:20:23.065Z,98892.06
2022-07-30T13:22:50.704Z,98900.84
2022-07-30T13:25:20.012Z,98890.34
2022-07-30T13:27:48.346Z,98886.03
2022-07-30T13:30:16.092Z,98882.72
2022-07-30T13:32:45.120Z,98879.53
2022-07-30T13:35:12.820Z,98887.19
2022-07-30T13:37:40.341Z,98888.19
2022-07-30T13:40:08.436Z,98883.44
2022-07-30T13:42:35.926Z,98870.84
2022-07-30T13:45:04.851Z,98884.31
2022-07-30T13:47:32.365Z,98871.72
2022-07-30T13:49:59.857Z,98868.13
2022-07-30T13:52:27.377Z,98861.09
2022-07-30T13:54:54.886Z,98864.50
2022-07-30T13:57:22.421Z,98855.16
2022-07-30T13:59:49.991Z,98853.25
2022-07-30T14:02:17.571Z,98847.53
2022-07-30T14:04:45.092Z,98851.69
2022-07-30T14:07:12.571Z,98848.13
2022-07-30T14:09:45.000Z,98850.19
2022-07-30T14:12:15.542Z,98856.31
2022-07-30T14:14:43.385Z,98855.06
2022-07-30T14:17:10.868Z,98844.22
2022-07-30T14:19:38.325Z,98843.63
2022-07-30T14:22:05.998Z,98843.41
2022-07-30T14:24:36.624Z,98847.94
2022-07-30T14:27:04.519Z,98844.25
2022-07-30T14:29:34.402Z,98839.31
2022-07-30T14:32:02.140Z,98841.06
2022-07-30T14:34:29.697Z,98838.19
2022-07-30T14:36:57.198Z,98831.09
2022-07-30T14:39:27.926Z,98829.09
2022-07-30T14:41:56.467Z,98829.13
2022-07-30T14:44:24.389Z,98843.81
2022-07-30T14:46:53.023Z,98837.00
2022-07-30T14:49:22.759Z,98824.13
2022-07-30T14:51:52.108Z,98833.78
2022-07-30T14:54:19.866Z,98827.16
2022-07-30T14:56:47.534Z,98819.88
2022-07-30T14:59:15.279Z,98821.84
2022-07-30T15:01:43.928Z,98818.19
2022-07-30T15:04:17.314Z,98809.66
2022-07-30T15:06:44.824Z,98816.53
2022-07-30T15:09:13.084Z,98826.91
2022-07-30T15:12:08.026Z,98821.66
2022-07-30T15:14:29.444Z,98818.81
2022-07-30T15:17:04.245Z,98815.34
2022-07-30T15:19:35.209Z,98817.88
2022-07-30T15:22:06.520Z,98820.00
2022-07-30T15:24:34.651Z,98823.13
2022-07-30T15:27:02.315Z,98822.59
2022-07-30T15:29:32.689Z,98820.00
2022-07-30T15:32:01.387Z,98818.56
2022-07-30T15:34:34.266Z,98814.06
2022-07-30T15:37:03.260Z,98818.91
2022-07-30T15:40:08.879Z,98814.69
2022-07-30T15:43:14.069Z,98824.03
2022-07-30T15:45:55.338Z,98818.50
2022-07-30T15:48:27.372Z,98826.00
2022-07-30T15:51:02.767Z,98809.44
2022-07-30T15:53:31.298Z,98805.56
2022-07-30T15:55:59.492Z,98812.66
2022-07-30T15:59:04.735Z,98803.59
2022-07-30T16:01:34.887Z,98805.88
2022-07-30T16:04:41.966Z,98805.84
2022-07-30T16:07:53.118Z,98807.84
2022-07-30T16:10:20.762Z,98806.09
2022-07-30T16:12:48.278Z,98807.88
2022-07-30T16:15:53.580Z,98811.00
2022-07-30T16:19:01.805Z,98796.13
2022-07-30T16:22:09.611Z,98798.72
2022-07-30T16:25:14.820Z,98793.97
2022-07-30T16:28:20.047Z,98781.56
2022-07-30T16:30:50.539Z,98777.25
2022-07-30T16:33:20.408Z,98776.47
2022-07-30T16:35:48.990Z,98782.91
2022-07-30T16:38:23.151Z,98781.16
2022-07-30T16:40:50.910Z,98781.75
2022-07-30T16:43:24.595Z,98773.09
2022-07-30T16:45:52.229Z,98777.75
2022-07-30T16:48:19.740Z,98782.09
2022-07-30T16:50:52.056Z,98779.56
2022-07-30T16:53:19.584Z,98770.38
2022-07-30T16:55:47.560Z,98781.22
2022-07-30T16:58:18.365Z,98768.53
2022-07-30T17:00:48.909Z,98771.16
2022-07-30T17:03:20.029Z,98767.91
2022-07-30T17:05:48.094Z,98770.31
2022-07-30T17:08:18.663Z,98769.00
2022-07-30T17:10:53.218Z,98771.78
2022-07-30T17:13:23.992Z,98770.50
2022-07-30T17:15:51.499Z,98768.84
2022-07-30T17:18:19.097Z,98772.19
2022-07-30T17:20:46.561Z,98769.19
2022-07-30T17:23:14.136Z,98775.16
2022-07-30T17:25:43.895Z,98771.28
2022-07-30T17:28:11.512Z,98776.06
2022-07-30T17:30:39.675Z,98777.31
2022-07-30T17:33:07.295Z,98778.75
2022-07-30T17:35:34.977Z,98780.28
2022-07-30T17:38:03.693Z,98789.16
2022-07-30T17:40:36.177Z,98788.13
2022-07-30T17:43:04.698Z,98800.06
2022-07-30T17:45:36.512Z,98792.19
2022-07-30T17:48:05.228Z,98800.72
2022-07-30T17:50:33.667Z,98810.16
2022-07-30T17:53:03.569Z,98806.50
2022-07-30T17:55:35.394Z,98799.94
2022-07-30T17:58:04.263Z,98797.88
2022-07-30T18:00:32.498Z,98798.78
2022-07-30T18:03:03.456Z,98801.63
2022-07-30T18:05:31.140Z,98802.44
2022-07-30T18:07:58.657Z,98788.31
2022-07-30T18:10:26.275Z,98806.19
2022-07-30T18:12:56.558Z,98811.06
2022-07-30T18:15:24.869Z,98810.81
2022-07-30T18:17:52.349Z,98811.59
2022-07-30T18:20:19.894Z,98808.19
2022-07-30T18:22:51.472Z,98807.84
2022-07-30T18:25:23.245Z,98817.53
2022-07-30T18:27:51.478Z,98816.63
2022-07-30T18:30:19.191Z,98817.75
2022-07-30T18:32:46.730Z,98816.28
2022-07-30T18:35:15.284Z,98819.47
2022-07-30T18:37:44.024Z,98816.50
2022-07-30T18:40:20.623Z,98821.59
2022-07-30T18:42:51.469Z,98832.72
2022-07-30T18:45:19.467Z,98825.91
2022-07-30T18:47:48.706Z,98835.72
2022-07-30T18:50:16.597Z,98831.31
2022-07-30T18:52:44.827Z,98837.66
2022-07-30T18:55:12.722Z,98839.88
2022-07-30T18:57:41.236Z,98842.34
2022-07-30T19:00:34.648Z,98855.19
2022-07-30T19:03:00.562Z,98850.69
2022-07-30T19:05:28.383Z,98866.53
2022-07-30T19:07:59.206Z,98856.88
2022-07-30T19:10:27.488Z,98860.47
2022-07-30T19:12:55.610Z,98866.00
2022-07-30T19:15:23.396Z,98865.38
2022-07-30T19:17:51.678Z,98878.22
2022-07-30T19:20:19.906Z,98870.84
2022-07-30T19:22:47.565Z,98872.03
2022-07-30T19:25:15.571Z,98878.63
2022-07-30T19:27:45.909Z,98875.91
2022-07-30T19:30:16.321Z,98883.44
2022-07-30T19:32:45.826Z,98880.38
2022-07-30T19:35:14.677Z,98883.16
2022-07-30T19:37:42.374Z,98891.25
2022-07-30T19:40:10.938Z,98889.34
2022-07-30T19:42:41.209Z,98888.84
2022-07-30T19:45:12.129Z,98890.00
2022-07-30T19:47:42.558Z,98891.84
2022-07-30T19:50:11.241Z,98903.22
2022-07-30T19:52:50.960Z,98904.44
2022-07-30T19:55:35.188Z,98905.56
2022-07-30T19:58:05.084Z,98904.22
2022-07-30T20:00:49.781Z,98901.31
2022-07-30T20:03:25.329Z,98902.75
2022-07-30T20:06:07.890Z,98904.81
2022-07-30T20:08:36.759Z,98912.72
2022-07-30T20:11:07.339Z,98913.72
2022-07-30T20:13:45.139Z,98914.03
2022-07-30T20:16:23.388Z,98919.97
2022-07-30T20:18:52.863Z,98916.09
2022-07-30T20:21:20.463Z,98917.06
2022-07-30T20:23:48.014Z,98914.13
2022-07-30T20:26:20.555Z,98917.25
2022-07-30T20:28:52.355Z,98921.81
2022-07-30T20:31:21.226Z,98924.19
2022-07-30T20:33:50.105Z,98927.81
2022-07-30T20:36:19.041Z,98939.72
2022-07-30T20:38:47.107Z,98934.28
2022-07-30T20:41:15.568Z,98935.63
2022-07-30T20:43:51.805Z,98939.47
2022-07-30T20:46:23.869Z,98944.22
2022-07-30T20:48:52.229Z,98944.47
2022-07-30T20:51:26.893Z,98940.25
2022-07-30T20:54:02.090Z,98938.59
2022-07-30T20:56:30.048Z,98936.75
2022-07-30T20:58:57.538Z,98936.06
2022-07-30T21:01:25.381Z,98941.84
2022-07-30T21:03:53.756Z,98945.34
2022-07-30T21:06:24.463Z,98944.72
2022-07-30T21:08:56.173Z,98955.03
2022-07-30T21:11:25.142Z,98958.38
2022-07-30T21:13:53.925Z,98947.50
2022-07-30T21:16:23.662Z,98948.31
2022-07-30T21:18:51.170Z,98955.88
2022-07-30T21:21:29.096Z,98955.88
2022-07-30T21:24:11.571Z,98958.94
2022-07-30T21:26:42.337Z,98963.47
2022-07-30T21:29:10.367Z,98964.34
2022-07-30T21:32:00.458Z,98967.84
2022-07-30T21:34:28.084Z,98971.75
2022-07-30T21:36:57.456Z,98965.38
2022-07-30T21:39:28.916Z,98966.56
2022-07-30T21:41:57.340Z,98964.41
2022-07-30T21:44:25.286Z,98967.84
2022-07-30T21:46:53.745Z,98976.53
2022-07-30T21:49:23.228Z,98978.56
2022-07-30T21:51:50.977Z,98976.34
2022-07-30T21:54:28.422Z,98974.50
2022-07-30T21:56:58.200Z,98980.00
2022-07-30T21:59:27.872Z,98984.47
2022-07-30T22:01:56.143Z,98982.28
2022-07-30T22:04:24.200Z,98991.28
2022-07-30T22:06:54.966Z,98990.44
2022-07-30T22:09:34.513Z,98989.69
2022-07-30T22:14:52.062Z,98993.59
2022-07-30T22:17:23.303Z,98999.25
2022-07-30T22:20:08.506Z,98996.94
2022-07-30T22:22:37.747Z,98987.25
2022-07-30T22:25:06.727Z,98990.00
2022-07-30T22:27:40.155Z,98995.47
2022-07-30T22:30:26.752Z,98993.00
2022-07-30T22:32:55.583Z,98987.94
2022-07-30T22:35:32.463Z,98985.19
2022-07-30T22:38:06.233Z,98992.13
2022-07-30T22:40:35.230Z,98983.72
2022-07-30T22:43:12.464Z,98986.00
2022-07-30T22:45:48.846Z,98992.38
2022-07-30T22:48:19.162Z,98988.47
2022-07-30T22:50:51.727Z,98987.44
2022-07-30T22:54:02.817Z,98983.72
2022-07-30T22:56:14.089Z,98991.94
2022-07-30T22:58:43.479Z,98995.13
2022-07-30T23:01:11.472Z,99002.50
2022-07-30T23:03:39.585Z,98994.41
2022-07-30T23:06:14.671Z,98993.78
2022-07-30T23:08:44.038Z,98992.00
2022-07-30T23:11:11.580Z,98984.09
2022-07-30T23:12:31.148Z,98992.31
2022-07-30T23:13:40.188Z,98987.53
2022-07-30T23:16:07.753Z,98988.63
2022-07-30T23:18:35.367Z,98987.72
2022-07-30T23:21:04.625Z,98989.38
2022-07-30T23:23:34.237Z,98983.75
2022-07-30T23:26:03.652Z,98991.38
2022-07-30T23:28:31.181Z,98981.28
2022-07-30T23:30:59.133Z,98984.63
2022-07-30T23:33:27.304Z,98982.16
2022-07-30T23:35:54.980Z,98986.69
2022-07-30T23:38:25.612Z,98980.34
2022-07-30T23:40:53.703Z,98989.19
2022-07-30T23:43:22.626Z,98984.72
2022-07-30T23:45:50.137Z,98981.81
2022-07-30T23:48:20.507Z,98974.84
2022-07-30T23:50:48.638Z,98978.03
2022-07-30T23:53:21.507Z,98982.47
2022-07-30T23:55:50.343Z,98987.44
2022-07-30T23:58:18.197Z,98981.41
